La rose des vents
Donnes mto: Semaine 28/04/08 - 04/05/08 (S 18)
Date Horaire Temp. E. Hum. E. P.atmo. Pluie Vent 1mn Direction Ensoleilleme Ev.Tr. Solaire P. de rose Temp au vent Rafales
28/04/2008 00:00 12,9 C 50 % 1018,3 hPa 0,0 l/m 0,2 km/h (0 Bft) NO 0,00 h 0,051 mm 0 W/m 2,8 C 12,9 C 0,4 km/h (0 Bft)
28/04/2008 01:00 13,0 C 48 % 1017,7 hPa 0,0 l/m 4,6 km/h (1 Bft) O 0,00 h 0,051 mm 0 W/m 2,4 C 13,0 C 5,8 km/h (2 Bft)
28/04/2008 02:00 13,5 C 46 % 1017,1 hPa 0,0 l/m 5,2 km/h (1 Bft) O 0,00 h 0,051 mm 0 W/m 2,2 C 13,5 C 6,6 km/h (2 Bft)
28/04/2008 03:00 12,7 C 51 % 1016,4 hPa 0,0 l/m 2,6 km/h (1 Bft) NO 0,00 h 0,076 mm 0 W/m 2,9 C 12,7 C 4,0 km/h (1 Bft)
28/04/2008 04:00 12,6 C 51 % 1015,8 hPa 0,0 l/m 2,4 km/h (1 Bft) NO 0,00 h 0,051 mm 0 W/m 2,8 C 12,6 C 3,3 km/h (1 Bft)
28/04/2008 05:00 12,4 C 53 % 1015,4 hPa 0,0 l/m 2,5 km/h (1 Bft) NO 0,00 h 0,051 mm 0 W/m 3,0 C 12,4 C 3,6 km/h (1 Bft)
28/04/2008 06:00 11,9 C 55 % 1015,3 hPa 0,0 l/m 1,1 km/h (1 Bft) NO 0,03 h 0,051 mm 14 W/m 3,3 C 11,9 C 1,9 km/h (1 Bft)
28/04/2008 07:00 12,3 C 57 % 1015,4 hPa 0,0 l/m 1,6 km/h (1 Bft) NO 0,35 h 0,025 mm 87 W/m 4,0 C 12,3 C 2,8 km/h (1 Bft)
28/04/2008 08:00 14,7 C 49 % 1015,3 hPa 0,0 l/m 0,8 km/h (0 Bft) NO 0,78 h 0,051 mm 235 W/m 4,1 C 14,7 C 2,1 km/h (1 Bft)
28/04/2008 09:00 16,6 C 48 % 1015,3 hPa 0,0 l/m 2,5 km/h (1 Bft) E 1,00 h 0,127 mm 463 W/m 5,5 C 16,6 C 4,5 km/h (1 Bft)
28/04/2008 10:00 18,2 C 47 % 1014,8 hPa 0,0 l/m 6,0 km/h (2 Bft) E 1,00 h 0,279 mm 595 W/m 6,7 C 18,2 C 9,7 km/h (2 Bft)
28/04/2008 11:00 18,0 C 52 % 1014,8 hPa 0,0 l/m 6,8 km/h (2 Bft) E-NE 0,17 h 0,381 mm 372 W/m 8,1 C 18,0 C 9,8 km/h (2 Bft)
28/04/2008 12:00 19,0 C 52 % 1014,3 hPa 0,0 l/m 6,1 km/h (2 Bft) E-NE 0,72 h 0,254 mm 592 W/m 8,8 C 19,0 C 9,7 km/h (2 Bft)
28/04/2008 13:00 19,0 C 50 % 1013,4 hPa 0,0 l/m 17,1 km/h (3 Bft) S-SE 0,38 h 0,406 mm 429 W/m 8,3 C 19,0 C 23,7 km/h (4 Bft)
28/04/2008 14:00 15,8 C 65 % 1013,4 hPa 0,2 l/m 18,3 km/h (3 Bft) SO 0,00 h 0,356 mm 99 W/m 9,1 C 15,8 C 23,7 km/h (4 Bft)
28/04/2008 15:00 15,5 C 63 % 1013,2 hPa 0,0 l/m 13,8 km/h (3 Bft) SO 0,00 h 0,152 mm 210 W/m 8,5 C 15,5 C 17,2 km/h (3 Bft)
28/04/2008 16:00 16,3 C 55 % 1012,8 hPa 0,0 l/m 10,9 km/h (2 Bft) SO 0,00 h 0,178 mm 159 W/m 7,2 C 16,3 C 14,3 km/h (3 Bft)
28/04/2008 17:00 15,7 C 62 % 1012,0 hPa 0,0 l/m 9,0 km/h (2 Bft) S-SO 0,00 h 0,152 mm 108 W/m 8,4 C 15,7 C 12,8 km/h (3 Bft)
28/04/2008 18:00 14,9 C 64 % 1012,1 hPa 0,0 l/m 5,4 km/h (1 Bft) O-SO 0,00 h 0,102 mm 39 W/m 8,2 C 14,9 C 8,1 km/h (2 Bft)
28/04/2008 19:00 14,0 C 70 % 1011,6 hPa 0,2 l/m 3,1 km/h (1 Bft) O-SO 0,00 h 0,051 mm 9 W/m 8,6 C 14,0 C 4,4 km/h (1 Bft)
28/04/2008 20:00 12,8 C 79 % 1011,1 hPa 0,0 l/m 3,3 km/h (1 Bft) N-NO 0,00 h 0,025 mm 7 W/m 9,2 C 12,8 C 5,7 km/h (1 Bft)
28/04/2008 21:00 12,7 C 76 % 1011,1 hPa 0,0 l/m 5,6 km/h (1 Bft) O 0,00 h 0,025 mm 0 W/m 8,6 C 12,7 C 8,2 km/h (2 Bft)
28/04/2008 22:00 12,9 C 69 % 1010,7 hPa 0,4 l/m 7,9 km/h (2 Bft) S-SO 0,00 h 0,025 mm 0 W/m 7,3 C 12,9 C 11,5 km/h (2 Bft)
28/04/2008 23:00 11,0 C 80 % 1010,8 hPa 0,6 l/m 6,9 km/h (2 Bft) O-SO 0,00 h 0,051 mm 0 W/m 7,7 C 11,0 C 9,7 km/h (2 Bft)
29/04/2008 00:00 10,4 C 86 % 1010,3 hPa 0,6 l/m 1,1 km/h (1 Bft) E-SE 0,00 h 0,025 mm 0 W/m 8,2 C 10,4 C 2,1 km/h (1 Bft)
29/04/2008 01:00 10,0 C 89 % 1009,6 hPa 1,6 l/m 2,8 km/h (1 Bft) E-SE 0,00 h 0,025 mm 0 W/m 8,3 C 10,0 C 4,2 km/h (1 Bft)
29/04/2008 02:00 9,6 C 91 % 1008,8 hPa 0,8 l/m 3,7 km/h (1 Bft) O-NO 0,00 h 0,025 mm 0 W/m 8,2 C 9,5 C 5,3 km/h (1 Bft)
29/04/2008 03:00 9,5 C 92 % 1007,5 hPa 0,8 l/m 2,8 km/h (1 Bft) S-SE 0,00 h 0,025 mm 0 W/m 8,2 C 9,4 C 4,0 km/h (1 Bft)
29/04/2008 04:00 9,3 C 93 % 1006,9 hPa 0,0 l/m 3,4 km/h (1 Bft) O-NO 0,00 h 0,000 mm 0 W/m 8,3 C 9,1 C 4,5 km/h (1 Bft)
29/04/2008 05:00 8,4 C 93 % 1006,3 hPa 0,0 l/m 2,6 km/h (1 Bft) O-NO 0,00 h 0,000 mm 0 W/m 7,4 C 8,2 C 3,7 km/h (1 Bft)
29/04/2008 06:00 8,0 C 94 % 1005,8 hPa 0,0 l/m 6,2 km/h (2 Bft) O-NO 0,00 h 0,000 mm 12 W/m 7,0 C 7,1 C 8,3 km/h (2 Bft)
29/04/2008 07:00 7,7 C 94 % 1005,7 hPa 0,0 l/m 0,8 km/h (0 Bft) O-NO 0,45 h 0,000 mm 97 W/m 6,9 C 7,7 C 1,5 km/h (1 Bft)
29/04/2008 08:00 9,7 C 94 % 1005,3 hPa 0,0 l/m 0,3 km/h (0 Bft) O-NO 0,83 h 0,051 mm 269 W/m 8,8 C 9,7 C 1,2 km/h (1 Bft)
29/04/2008 09:00 12,4 C 84 % 1004,7 hPa 0,0 l/m 3,5 km/h (1 Bft) E 1,00 h 0,127 mm 531 W/m 9,9 C 12,4 C 5,9 km/h (2 Bft)
29/04/2008 10:00 13,3 C 78 % 1004,4 hPa 0,0 l/m 3,3 km/h (1 Bft) E 0,58 h 0,254 mm 500 W/m 9,5 C 13,3 C 5,7 km/h (1 Bft)
29/04/2008 11:00 14,5 C 74 % 1004,2 hPa 0,0 l/m 4,9 km/h (1 Bft) S 0,90 h 0,254 mm 771 W/m 9,8 C 14,5 C 7,9 km/h (2 Bft)
29/04/2008 12:00 16,0 C 67 % 1003,7 hPa 0,0 l/m 8,0 km/h (2 Bft) E 0,70 h 0,406 mm 729 W/m 9,9 C 16,0 C 12,5 km/h (3 Bft)
29/04/2008 13:00 16,5 C 64 % 1003,6 hPa 0,0 l/m 10,5 km/h (2 Bft) E 1,00 h 0,457 mm 863 W/m 9,6 C 16,5 C 16,0 km/h (3 Bft)
29/04/2008 14:00 17,5 C 61 % 1003,5 hPa 0,0 l/m 12,0 km/h (2 Bft) E-NE 1,00 h 0,508 mm 835 W/m 10,0 C 17,5 C 17,2 km/h (3 Bft)
29/04/2008 15:00 18,0 C 62 % 1003,2 hPa 0,0 l/m 14,6 km/h (3 Bft) E-NE 1,00 h 0,533 mm 754 W/m 10,5 C 18,0 C 20,1 km/h (4 Bft)
29/04/2008 16:00 17,1 C 67 % 1002,9 hPa 0,0 l/m 16,0 km/h (3 Bft) E-NE 0,82 h 0,508 mm 512 W/m 11,0 C 17,1 C 21,5 km/h (4 Bft)
29/04/2008 17:00 16,7 C 70 % 1003,1 hPa 0,0 l/m 16,0 km/h (3 Bft) E-NE 1,00 h 0,356 mm 471 W/m 11,2 C 16,7 C 22,4 km/h (4 Bft)
29/04/2008 18:00 15,7 C 73 % 1003,4 hPa 0,0 l/m 14,2 km/h (3 Bft) NE 0,97 h 0,330 mm 285 W/m 10,9 C 15,7 C 20,6 km/h (4 Bft)
29/04/2008 19:00 14,7 C 77 % 1003,9 hPa 0,0 l/m 11,2 km/h (2 Bft) NE 0,80 h 0,203 mm 114 W/m 10,8 C 14,7 C 17,0 km/h (3 Bft)
29/04/2008 20:00 12,9 C 82 % 1003,9 hPa 0,0 l/m 8,2 km/h (2 Bft) NE 0,03 h 0,102 mm 13 W/m 10,0 C 12,9 C 12,0 km/h (2 Bft)
29/04/2008 21:00 11,9 C 83 % 1004,5 hPa 0,0 l/m 8,4 km/h (2 Bft) E-NE 0,00 h 0,025 mm 0 W/m 9,1 C 11,9 C 12,2 km/h (3 Bft)
29/04/2008 22:00 11,8 C 85 % 1005,1 hPa 0,0 l/m 5,2 km/h (1 Bft) N-NE 0,00 h 0,025 mm 0 W/m 9,4 C 11,8 C 7,9 km/h (2 Bft)
29/04/2008 23:00 11,2 C 87 % 1005,2 hPa 0,0 l/m 3,7 km/h (1 Bft) N 0,00 h 0,025 mm 0 W/m 9,1 C 11,2 C 6,1 km/h (2 Bft)
30/04/2008 00:00 10,7 C 88 % 1004,9 hPa 0,0 l/m 3,1 km/h (1 Bft) N-NE 0,00 h 0,025 mm 0 W/m 8,9 C 10,7 C 5,3 km/h (1 Bft)
30/04/2008 01:00 9,9 C 89 % 1004,9 hPa 0,0 l/m 1,2 km/h (1 Bft) N 0,00 h 0,025 mm 0 W/m 8,2 C 9,9 C 2,6 km/h (1 Bft)
30/04/2008 02:00 10,0 C 90 % 1004,8 hPa 0,0 l/m 2,7 km/h (1 Bft) N 0,00 h 0,025 mm 0 W/m 8,4 C 10,0 C 4,8 km/h (1 Bft)
30/04/2008 03:00 10,0 C 90 % 1004,7 hPa 0,0 l/m 3,2 km/h (1 Bft) N 0,00 h 0,025 mm 0 W/m 8,4 C 10,0 C 5,9 km/h (2 Bft)
30/04/2008 04:00 9,6 C 90 % 1004,5 hPa 0,0 l/m 3,9 km/h (1 Bft) N 0,00 h 0,025 mm 0 W/m 8,1 C 9,4 C 6,2 km/h (2 Bft)
30/04/2008 05:00 10,1 C 90 % 1004,9 hPa 0,0 l/m 8,1 km/h (2 Bft) O 0,00 h 0,025 mm 0 W/m 8,6 C 9,7 C 11,0 km/h (2 Bft)
30/04/2008 06:00 9,8 C 87 % 1004,8 hPa 0,0 l/m 3,7 km/h (1 Bft) NO 0,03 h 0,025 mm 16 W/m 7,8 C 9,7 C 5,9 km/h (2 Bft)
30/04/2008 07:00 10,2 C 87 % 1004,9 hPa 0,0 l/m 0,6 km/h (0 Bft) NO 0,33 h 0,025 mm 99 W/m 8,1 C 10,2 C 1,2 km/h (1 Bft)
30/04/2008 08:00 12,2 C 80 % 1005,2 hPa 0,0 l/m 2,1 km/h (1 Bft) S 0,20 h 0,051 mm 174 W/m 8,8 C 12,2 C 3,1 km/h (1 Bft)
30/04/2008 09:00 13,9 C 74 % 1005,7 hPa 0,0 l/m 1,9 km/h (1 Bft) S-SO 0,10 h 0,102 mm 235 W/m 9,4 C 13,9 C 3,6 km/h (1 Bft)
30/04/2008 10:00 14,3 C 74 % 1006,2 hPa 0,0 l/m 1,3 km/h (1 Bft) S-SE 0,00 h 0,127 mm 227 W/m 9,7 C 14,3 C 2,7 km/h (1 Bft)
30/04/2008 11:00 14,9 C 72 % 1006,4 hPa 0,0 l/m 4,0 km/h (1 Bft) S-SE 0,22 h 0,127 mm 338 W/m 9,8 C 14,9 C 6,5 km/h (2 Bft)
30/04/2008 12:00 15,2 C 70 % 1006,4 hPa 0,0 l/m 5,1 km/h (1 Bft) S-SE 0,00 h 0,203 mm 236 W/m 9,8 C 15,2 C 7,6 km/h (2 Bft)
30/04/2008 13:00 14,8 C 75 % 1006,4 hPa 0,0 l/m 7,2 km/h (2 Bft) S-SO 0,00 h 0,152 mm 156 W/m 10,5 C 14,8 C 10,4 km/h (2 Bft)
30/04/2008 14:00 14,7 C 76 % 1006,4 hPa 0,0 l/m 8,4 km/h (2 Bft) SO 0,00 h 0,102 mm 163 W/m 10,4 C 14,7 C 11,4 km/h (2 Bft)
30/04/2008 15:00 13,7 C 74 % 1006,8 hPa 0,2 l/m 10,3 km/h (2 Bft) SO 0,00 h 0,127 mm 146 W/m 9,2 C 13,7 C 14,1 km/h (3 Bft)
30/04/2008 16:00 14,1 C 73 % 1006,7 hPa 0,0 l/m 5,3 km/h (1 Bft) SO 0,02 h 0,127 mm 203 W/m 9,3 C 14,1 C 7,8 km/h (2 Bft)
30/04/2008 17:00 13,2 C 77 % 1006,8 hPa 0,4 l/m 5,2 km/h (1 Bft) NO 0,00 h 0,127 mm 88 W/m 9,3 C 13,2 C 7,0 km/h (2 Bft)
30/04/2008 18:00 12,2 C 86 % 1006,9 hPa 0,2 l/m 5,7 km/h (1 Bft) O-NO 0,00 h 0,051 mm 76 W/m 10,0 C 12,2 C 7,8 km/h (2 Bft)
30/04/2008 19:00 11,3 C 86 % 1007,3 hPa 4,2 l/m 7,8 km/h (2 Bft) O-NO 0,00 h 0,051 mm 8 W/m 9,1 C 11,3 C 10,6 km/h (2 Bft)
30/04/2008 20:00 10,5 C 90 % 1007,6 hPa 2,2 l/m 1,4 km/h (1 Bft) O-NO 0,00 h 0,025 mm 9 W/m 8,9 C 10,5 C 2,8 km/h (1 Bft)
30/04/2008 21:00 9,9 C 91 % 1008,0 hPa 0,0 l/m 1,0 km/h (0 Bft) O-NO 0,00 h 0,000 mm 0 W/m 8,5 C 9,9 C 1,4 km/h (1 Bft)
30/04/2008 22:00 9,5 C 92 % 1008,5 hPa 0,0 l/m 3,7 km/h (1 Bft) O-NO 0,00 h 0,000 mm 0 W/m 8,2 C 9,4 C 5,5 km/h (1 Bft)
30/04/2008 23:00 9,3 C 93 % 1008,5 hPa 0,0 l/m 4,6 km/h (1 Bft) O-NO 0,00 h 0,050 mm 0 W/m 8,2 C 8,9 C 5,9 km/h (2 Bft)
01/05/2008 00:00 9,2 C 93 % 1008,7 hPa 0,0 l/m 3,4 km/h (1 Bft) O-NO 0,00 h 0,000 mm 0 W/m 8,1 C 9,0 C 4,7 km/h (1 Bft)
01/05/2008 01:00 8,8 C 93 % 1008,9 hPa 0,0 l/m 1,6 km/h (1 Bft) O-NO 0,00 h 0,000 mm 0 W/m 7,7 C 8,7 C 2,3 km/h (1 Bft)
01/05/2008 02:00 8,5 C 93 % 1008,7 hPa 0,2 l/m 3,1 km/h (1 Bft) O-NO 0,00 h 0,000 mm 0 W/m 7,5 C 8,3 C 3,9 km/h (1 Bft)
01/05/2008 03:00 8,3 C 93 % 1008,7 hPa 0,0 l/m 5,5 km/h (1 Bft) O-NO 0,00 h 0,000 mm 0 W/m 7,3 C 7,7 C 7,0 km/h (2 Bft)
01/05/2008 04:00 8,5 C 93 % 1008,6 hPa 0,0 l/m 6,3 km/h (2 Bft) O-NO 0,00 h 0,025 mm 0 W/m 7,5 C 7,7 C 7,6 km/h (2 Bft)
01/05/2008 05:00 8,4 C 92 % 1008,9 hPa 0,0 l/m 4,8 km/h (1 Bft) O-NO 0,00 h 0,025 mm 0 W/m 7,2 C 8,0 C 6,9 km/h (2 Bft)
01/05/2008 06:00 8,2 C 92 % 1009,0 hPa 0,0 l/m 1,8 km/h (1 Bft) NO 0,00 h 0,025 mm 13 W/m 7,0 C 8,1 C 2,6 km/h (1 Bft)
01/05/2008 07:00 8,7 C 93 % 1009,6 hPa 0,0 l/m 0,7 km/h (0 Bft) NO 0,43 h 0,000 mm 102 W/m 7,6 C 8,7 C 1,4 km/h (1 Bft)
01/05/2008 08:00 11,0 C 91 % 1010,4 hPa 0,0 l/m 0,6 km/h (0 Bft) NO 0,95 h 0,051 mm 307 W/m 9,5 C 11,0 C 1,4 km/h (1 Bft)
01/05/2008 09:00 13,6 C 76 % 1010,9 hPa 0,0 l/m 1,7 km/h (1 Bft) E 1,00 h 0,152 mm 507 W/m 9,5 C 13,6 C 3,4 km/h (1 Bft)
01/05/2008 10:00 15,3 C 67 % 1011,5 hPa 0,0 l/m 2,1 km/h (1 Bft) SO 1,00 h 0,254 mm 672 W/m 9,1 C 15,3 C 4,2 km/h (1 Bft)
01/05/2008 11:00 16,8 C 64 % 1011,9 hPa 0,0 l/m 6,8 km/h (2 Bft) E 1,00 h 0,356 mm 795 W/m 9,9 C 16,8 C 10,9 km/h (2 Bft)
01/05/2008 12:00 16,5 C 65 % 1012,2 hPa 0,0 l/m 9,7 km/h (2 Bft) E 1,00 h 0,457 mm 870 W/m 9,9 C 16,5 C 15,2 km/h (3 Bft)
01/05/2008 13:00 17,8 C 63 % 1012,4 hPa 0,0 l/m 11,4 km/h (2 Bft) E-NE 1,00 h 0,508 mm 896 W/m 10,6 C 17,8 C 16,4 km/h (3 Bft)
01/05/2008 14:00 18,4 C 55 % 1012,6 hPa 0,0 l/m 10,5 km/h (2 Bft) E-NE 1,00 h 0,559 mm 867 W/m 9,3 C 18,4 C 16,1 km/h (3 Bft)
01/05/2008 15:00 18,8 C 58 % 1012,7 hPa 0,0 l/m 9,6 km/h (2 Bft) E 1,00 h 0,559 mm 783 W/m 10,3 C 18,8 C 14,7 km/h (3 Bft)
01/05/2008 16:00 18,8 C 58 % 1012,6 hPa 0,0 l/m 9,4 km/h (2 Bft) E-NE 1,00 h 0,508 mm 654 W/m 10,5 C 18,8 C 14,0 km/h (3 Bft)
01/05/2008 17:00 18,5 C 62 % 1012,8 hPa 0,0 l/m 9,4 km/h (2 Bft) E-NE 1,00 h 0,432 mm 487 W/m 11,0 C 18,5 C 13,8 km/h (3 Bft)
01/05/2008 18:00 17,7 C 64 % 1013,3 hPa 0,0 l/m 9,2 km/h (2 Bft) E-NE 1,00 h 0,330 mm 300 W/m 10,8 C 17,7 C 13,2 km/h (3 Bft)
01/05/2008 19:00 16,6 C 67 % 1013,5 hPa 0,0 l/m 6,8 km/h (2 Bft) E-NE 0,83 h 0,203 mm 118 W/m 10,5 C 16,6 C 9,7 km/h (2 Bft)
01/05/2008 20:00 14,3 C 74 % 1014,0 hPa 0,0 l/m 4,1 km/h (1 Bft) E-NE 0,05 h 0,102 mm 15 W/m 9,7 C 14,3 C 6,1 km/h (2 Bft)
01/05/2008 21:00 13,1 C 80 % 1014,7 hPa 0,0 l/m 1,6 km/h (1 Bft) E 0,00 h 0,025 mm 0 W/m 9,7 C 13,1 C 3,0 km/h (1 Bft)
01/05/2008 22:00 12,3 C 85 % 1015,3 hPa 0,0 l/m 6,2 km/h (2 Bft) O 0,00 h 0,025 mm 0 W/m 9,9 C 12,3 C 7,8 km/h (2 Bft)
01/05/2008 23:00 11,9 C 87 % 1015,7 hPa 0,0 l/m 7,9 km/h (2 Bft) O 0,00 h 0,025 mm 0 W/m 9,8 C 11,9 C 9,8 km/h (2 Bft)
02/05/2008 00:00 11,7 C 86 % 1016,2 hPa 0,0 l/m 7,0 km/h (2 Bft) O 0,00 h 0,025 mm 0 W/m 9,5 C 11,7 C 9,5 km/h (2 Bft)
02/05/2008 01:00 11,4 C 83 % 1016,5 hPa 0,0 l/m 7,0 km/h (2 Bft) O 0,00 h 0,025 mm 0 W/m 8,7 C 11,4 C 8,7 km/h (2 Bft)
02/05/2008 02:00 11,2 C 79 % 1016,4 hPa 0,0 l/m 5,0 km/h (1 Bft) O-NO 0,00 h 0,025 mm 0 W/m 7,6 C 11,2 C 6,5 km/h (2 Bft)
02/05/2008 03:00 11,0 C 76 % 1016,4 hPa 0,0 l/m 3,1 km/h (1 Bft) O-NO 0,00 h 0,025 mm 0 W/m 6,8 C 11,0 C 4,5 km/h (1 Bft)
02/05/2008 04:00 10,5 C 75 % 1016,9 hPa 0,0 l/m 0,5 km/h (0 Bft) O-NO 0,00 h 0,025 mm 0 W/m 6,3 C 10,5 C 0,9 km/h (0 Bft)
02/05/2008 05:00 10,3 C 77 % 1017,3 hPa 0,0 l/m 5,7 km/h (1 Bft) O-NO 0,00 h 0,025 mm 0 W/m 6,5 C 10,3 C 7,0 km/h (2 Bft)
02/05/2008 06:00 10,4 C 75 % 1018,0 hPa 0,0 l/m 5,8 km/h (2 Bft) O-NO 0,12 h 0,025 mm 19 W/m 6,2 C 10,4 C 7,5 km/h (2 Bft)
02/05/2008 07:00 11,2 C 72 % 1018,8 hPa 0,0 l/m 4,7 km/h (1 Bft) O 0,38 h 0,025 mm 93 W/m 6,3 C 11,2 C 6,4 km/h (2 Bft)
02/05/2008 08:00 13,9 C 70 % 1019,4 hPa 0,0 l/m 0,9 km/h (0 Bft) O 1,00 h 0,076 mm 315 W/m 8,5 C 13,9 C 2,7 km/h (1 Bft)
02/05/2008 09:00 16,1 C 65 % 1019,6 hPa 0,0 l/m 1,4 km/h (1 Bft) O 1,00 h 0,178 mm 502 W/m 9,4 C 16,1 C 3,3 km/h (1 Bft)
02/05/2008 10:00 17,9 C 60 % 1020,0 hPa 0,0 l/m 5,4 km/h (1 Bft) E 1,00 h 0,279 mm 662 W/m 10,0 C 17,9 C 8,7 km/h (2 Bft)
02/05/2008 11:00 18,6 C 58 % 1020,4 hPa 0,0 l/m 7,1 km/h (2 Bft) E 1,00 h 0,406 mm 725 W/m 10,2 C 18,6 C 10,9 km/h (2 Bft)
02/05/2008 12:00 19,0 C 57 % 1020,5 hPa 0,0 l/m 6,1 km/h (2 Bft) S 1,00 h 0,457 mm 754 W/m 10,2 C 19,0 C 10,4 km/h (2 Bft)
02/05/2008 13:00 19,7 C 59 % 1020,1 hPa 0,0 l/m 6,9 km/h (2 Bft) E 1,00 h 0,457 mm 814 W/m 11,5 C 19,7 C 11,4 km/h (2 Bft)
02/05/2008 14:00 19,8 C 63 % 1020,1 hPa 0,0 l/m 7,5 km/h (2 Bft) E 1,00 h 0,508 mm 812 W/m 12,6 C 19,8 C 11,9 km/h (2 Bft)
02/05/2008 15:00 20,2 C 60 % 1020,0 hPa 0,0 l/m 7,1 km/h (2 Bft) E 1,00 h 0,508 mm 742 W/m 12,1 C 20,2 C 10,8 km/h (2 Bft)
02/05/2008 16:00 20,6 C 60 % 1019,4 hPa 0,0 l/m 6,8 km/h (2 Bft) E-NE 1,00 h 0,483 mm 647 W/m 12,5 C 20,6 C 9,7 km/h (2 Bft)
02/05/2008 17:00 21,0 C 51 % 1019,0 hPa 0,0 l/m 4,7 km/h (1 Bft) NE 1,00 h 0,406 mm 484 W/m 10,2 C 21,0 C 8,1 km/h (2 Bft)
02/05/2008 18:00 20,3 C 47 % 1019,0 hPa 0,0 l/m 4,8 km/h (1 Bft) S-SE 0,93 h 0,330 mm 284 W/m 8,7 C 20,3 C 7,5 km/h (2 Bft)
02/05/2008 19:00 19,1 C 55 % 1018,9 hPa 0,0 l/m 1,0 km/h (0 Bft) S-SE 0,47 h 0,203 mm 108 W/m 9,9 C 19,1 C 2,0 km/h (1 Bft)
02/05/2008 20:00 16,2 C 65 % 1019,0 hPa 0,0 l/m 1,3 km/h (1 Bft) S-SE 0,17 h 0,076 mm 21 W/m 9,7 C 16,2 C 2,2 km/h (1 Bft)
02/05/2008 21:00 15,2 C 67 % 1019,5 hPa 0,0 l/m 2,1 km/h (1 Bft) O 0,00 h 0,025 mm 0 W/m 9,1 C 15,2 C 2,6 km/h (1 Bft)
02/05/2008 22:00 14,8 C 61 % 1019,6 hPa 0,0 l/m 3,4 km/h (1 Bft) NO 0,00 h 0,025 mm 0 W/m 7,4 C 14,8 C 5,3 km/h (1 Bft)
02/05/2008 23:00 14,7 C 57 % 1019,6 hPa 0,0 l/m 4,2 km/h (1 Bft) NO 0,00 h 0,051 mm 0 W/m 6,3 C 14,7 C 6,6 km/h (2 Bft)
03/05/2008 00:00 14,6 C 56 % 1019,6 hPa 0,0 l/m 4,4 km/h (1 Bft) O-NO 0,00 h 0,051 mm 0 W/m 5,9 C 14,6 C 7,6 km/h (2 Bft)
03/05/2008 01:00 15,0 C 56 % 1019,4 hPa 0,0 l/m 4,0 km/h (1 Bft) NO 0,00 h 0,051 mm 0 W/m 6,4 C 15,0 C 6,7 km/h (2 Bft)
03/05/2008 02:00 14,9 C 59 % 1019,3 hPa 0,0 l/m 5,6 km/h (1 Bft) O-NO 0,00 h 0,051 mm 0 W/m 6,9 C 14,9 C 8,4 km/h (2 Bft)
03/05/2008 03:00 14,5 C 61 % 1018,9 hPa 0,0 l/m 4,5 km/h (1 Bft) NO 0,00 h 0,051 mm 0 W/m 7,2 C 14,5 C 7,5 km/h (2 Bft)
03/05/2008 04:00 13,6 C 63 % 1018,9 hPa 0,0 l/m 2,1 km/h (1 Bft) NO 0,00 h 0,051 mm 0 W/m 6,8 C 13,6 C 3,5 km/h (1 Bft)
03/05/2008 05:00 12,9 C 68 % 1018,9 hPa 0,0 l/m 3,9 km/h (1 Bft) SO 0,00 h 0,051 mm 0 W/m 7,2 C 12,9 C 5,4 km/h (1 Bft)
03/05/2008 06:00 13,4 C 65 % 1019,2 hPa 0,0 l/m 0,9 km/h (0 Bft) SO 0,03 h 0,025 mm 12 W/m 7,0 C 13,4 C 1,7 km/h (1 Bft)
03/05/2008 07:00 14,0 C 64 % 1019,6 hPa 0,0 l/m 1,0 km/h (0 Bft) SO 0,15 h 0,025 mm 77 W/m 7,3 C 14,0 C 2,3 km/h (1 Bft)
03/05/2008 08:00 16,0 C 60 % 1020,2 hPa 0,0 l/m 0,1 km/h (0 Bft) O 0,62 h 0,051 mm 238 W/m 8,3 C 16,0 C 0,6 km/h (0 Bft)
03/05/2008 09:00 19,3 C 51 % 1020,3 hPa 0,0 l/m 1,7 km/h (1 Bft) O-NO 1,00 h 0,127 mm 494 W/m 8,8 C 19,3 C 3,3 km/h (1 Bft)
03/05/2008 10:00 22,2 C 42 % 1020,4 hPa 0,0 l/m 4,5 km/h (1 Bft) E 1,00 h 0,305 mm 659 W/m 8,8 C 22,2 C 7,2 km/h (2 Bft)
03/05/2008 11:00 22,9 C 38 % 1020,4 hPa 0,0 l/m 5,9 km/h (2 Bft) E 1,00 h 0,432 mm 786 W/m 7,6 C 22,9 C 9,9 km/h (2 Bft)
03/05/2008 12:00 23,1 C 42 % 1020,3 hPa 0,0 l/m 8,8 km/h (2 Bft) E 1,00 h 0,533 mm 849 W/m 9,4 C 23,1 C 12,9 km/h (3 Bft)
03/05/2008 13:00 22,9 C 37 % 1020,1 hPa 0,0 l/m 7,9 km/h (2 Bft) E 1,00 h 0,584 mm 871 W/m 7,3 C 22,9 C 12,8 km/h (3 Bft)
03/05/2008 14:00 23,8 C 35 % 1019,7 hPa 0,0 l/m 6,0 km/h (2 Bft) S 1,00 h 0,610 mm 865 W/m 7,6 C 23,8 C 10,3 km/h (2 Bft)
03/05/2008 15:00 24,1 C 36 % 1019,4 hPa 0,0 l/m 8,0 km/h (2 Bft) E 1,00 h 0,584 mm 773 W/m 8,2 C 24,1 C 12,8 km/h (3 Bft)
03/05/2008 16:00 23,9 C 36 % 1018,9 hPa 0,0 l/m 7,3 km/h (2 Bft) E 1,00 h 0,559 mm 641 W/m 7,9 C 23,9 C 11,6 km/h (2 Bft)
03/05/2008 17:00 23,0 C 39 % 1018,6 hPa 0,0 l/m 5,9 km/h (2 Bft) E 1,00 h 0,483 mm 482 W/m 8,1 C 23,0 C 8,6 km/h (2 Bft)
03/05/2008 18:00 22,1 C 42 % 1018,3 hPa 0,0 l/m 2,6 km/h (1 Bft) E 1,00 h 0,356 mm 297 W/m 8,4 C 22,1 C 4,6 km/h (1 Bft)
03/05/2008 19:00 20,6 C 45 % 1018,2 hPa 0,0 l/m 0,4 km/h (0 Bft) E 0,63 h 0,203 mm 111 W/m 8,3 C 20,6 C 1,0 km/h (0 Bft)
03/05/2008 20:00 18,2 C 50 % 1018,4 hPa 0,0 l/m 0,1 km/h (0 Bft) E 0,02 h 0,076 mm 19 W/m 7,4 C 18,2 C 0,3 km/h (0 Bft)
03/05/2008 21:00 17,1 C 53 % 1018,7 hPa 0,0 l/m 1,7 km/h (1 Bft) E 0,00 h 0,025 mm 0 W/m 7,5 C 17,1 C 2,8 km/h (1 Bft)
03/05/2008 22:00 16,5 C 55 % 1018,7 hPa 0,0 l/m 2,3 km/h (1 Bft) O-NO 0,00 h 0,051 mm 0 W/m 7,5 C 16,5 C 3,9 km/h (1 Bft)
03/05/2008 23:00 16,1 C 53 % 1018,5 hPa 0,0 l/m 3,9 km/h (1 Bft) O-NO 0,00 h 0,051 mm 0 W/m 6,6 C 16,1 C 6,1 km/h (2 Bft)
04/05/2008 00:00 16,3 C 49 % 1018,1 hPa 0,0 l/m 3,3 km/h (1 Bft) O-NO 0,00 h 0,051 mm 0 W/m 5,6 C 16,3 C 6,6 km/h (2 Bft)
04/05/2008 01:00 16,4 C 49 % 1017,7 hPa 0,0 l/m 4,8 km/h (1 Bft) NO 0,00 h 0,051 mm 0 W/m 5,6 C 16,4 C 7,0 km/h (2 Bft)
04/05/2008 02:00 16,4 C 49 % 1017,4 hPa 0,0 l/m 4,1 km/h (1 Bft) O-NO 0,00 h 0,076 mm 0 W/m 5,6 C 16,4 C 5,4 km/h (1 Bft)
04/05/2008 03:00 16,4 C 49 % 1017,1 hPa 0,0 l/m 1,8 km/h (1 Bft) O 0,00 h 0,076 mm 0 W/m 5,6 C 16,4 C 2,7 km/h (1 Bft)
04/05/2008 04:00 15,1 C 56 % 1017,2 hPa 0,0 l/m 0,5 km/h (0 Bft) O 0,00 h 0,051 mm 0 W/m 6,3 C 15,1 C 1,0 km/h (0 Bft)
04/05/2008 05:00 14,4 C 59 % 1017,2 hPa 0,0 l/m 2,3 km/h (1 Bft) O 0,00 h 0,051 mm 0 W/m 6,6 C 14,4 C 3,9 km/h (1 Bft)
04/05/2008 06:00 14,1 C 61 % 1017,4 hPa 0,0 l/m 2,9 km/h (1 Bft) O-NO 0,05 h 0,025 mm 15 W/m 6,6 C 14,1 C 3,9 km/h (1 Bft)
04/05/2008 07:00 15,2 C 61 % 1017,8 hPa 0,0 l/m 3,1 km/h (1 Bft) O-NO 0,37 h 0,025 mm 92 W/m 7,6 C 15,2 C 5,0 km/h (1 Bft)
04/05/2008 08:00 17,7 C 55 % 1018,1 hPa 0,0 l/m 0,9 km/h (0 Bft) N 1,00 h 0,076 mm 305 W/m 8,5 C 17,7 C 2,3 km/h (1 Bft)
04/05/2008 09:00 20,3 C 47 % 1018,1 hPa 0,0 l/m 2,6 km/h (1 Bft) E-NE 1,00 h 0,178 mm 488 W/m 8,5 C 20,3 C 4,4 km/h (1 Bft)
04/05/2008 10:00 21,5 C 47 % 1018,1 hPa 0,0 l/m 7,0 km/h (2 Bft) E 1,00 h 0,305 mm 648 W/m 9,8 C 21,5 C 10,0 km/h (2 Bft)
04/05/2008 11:00 21,1 C 49 % 1018,2 hPa 0,0 l/m 8,9 km/h (2 Bft) E 1,00 h 0,432 mm 775 W/m 9,9 C 21,1 C 13,1 km/h (3 Bft)
04/05/2008 12:00 21,9 C 47 % 1018,1 hPa 0,0 l/m 7,1 km/h (2 Bft) E 1,00 h 0,533 mm 850 W/m 10,1 C 21,9 C 10,8 km/h (2 Bft)
04/05/2008 13:00 22,9 C 46 % 1017,6 hPa 0,0 l/m 8,5 km/h (2 Bft) E 1,00 h 0,559 mm 880 W/m 10,6 C 22,9 C 12,4 km/h (3 Bft)
04/05/2008 14:00 22,4 C 44 % 1017,4 hPa 0,0 l/m 8,3 km/h (2 Bft) E 0,98 h 0,610 mm 782 W/m 9,7 C 22,4 C 12,4 km/h (3 Bft)
04/05/2008 15:00 21,7 C 53 % 1017,2 hPa 0,0 l/m 8,0 km/h (2 Bft) E 0,93 h 0,533 mm 642 W/m 11,6 C 21,7 C 11,7 km/h (2 Bft)
04/05/2008 16:00 20,5 C 66 % 1016,9 hPa 0,0 l/m 6,6 km/h (2 Bft) E 0,87 h 0,432 mm 484 W/m 13,8 C 20,5 C 9,5 km/h (2 Bft)
04/05/2008 17:00 21,2 C 68 % 1016,4 hPa 0,0 l/m 4,0 km/h (1 Bft) E 0,97 h 0,305 mm 533 W/m 15,0 C 21,2 C 6,8 km/h (2 Bft)
04/05/2008 18:00 20,2 C 73 % 1016,1 hPa 0,0 l/m 4,2 km/h (1 Bft) E 0,95 h 0,330 mm 316 W/m 15,2 C 20,2 C 6,5 km/h (2 Bft)
04/05/2008 19:00 18,5 C 77 % 1016,1 hPa 0,0 l/m 3,0 km/h (1 Bft) E 0,02 h 0,203 mm 70 W/m 14,4 C 18,5 C 4,8 km/h (1 Bft)
04/05/2008 20:00 17,1 C 81 % 1016,1 hPa 0,0 l/m 0,4 km/h (0 Bft) E 0,02 h 0,051 mm 17 W/m 13,9 C 17,1 C 0,9 km/h (0 Bft)
04/05/2008 21:00 16,3 C 84 % 1016,1 hPa 0,0 l/m 0,4 km/h (0 Bft) E 0,00 h 0,000 mm 0 W/m 13,5 C 16,3 C 0,8 km/h (0 Bft)
04/05/2008 22:00 15,9 C 84 % 1016,0 hPa 0,0 l/m 0,5 km/h (0 Bft) O-NO 0,00 h 0,025 mm 0 W/m 13,3 C 15,9 C 0,9 km/h (0 Bft)
04/05/2008 23:00 15,4 C 85 % 1016,0 hPa 0,0 l/m 0,9 km/h (0 Bft) O-NO 0,00 h 0,025 mm 0 W/m 12,9 C 15,4 C 1,5 km/h (1 Bft)
Min-Date _ 29/04/08 03/05/08 29/04/08 - 28/04/08 - - - - 28/04/08 29/04/08 28/04/08
_ Min-Heure 07:15 14:27 16:15 - 00:02 - - - - 01:57 06:56 00:02
Minimum _ 7,3 C 31 % 1002,9 hPa - 0,0 km/h (0 Bft) - - - - 1,8 C 6,2 C 0,0 km/h (0 Bft)
Max-Date _ 03/05/08 01/05/08 02/05/08 30/04/08 28/04/08 - 28/04/08 03/05/08 29/04/08 04/05/08 03/05/08 28/04/08
_ Max-Heure 15:50 00:07 11:30 19:34 13:45 - 06:38 14:00 12:39 18:07 15:50 13:43
Maximum _ 24,5 C 97 % 1020,6 hPa 4,2 l/m 29,0 km/h
S-SE (5 Bft)
- 0,02 h 0,610 mm 1046 W/m 16,1 C 24,5 C 38,6 km/h
S-SO (5 Bft)
Moyenne _ 15,0 C 68 % 1013,2 hPa #12,6 l/m 5,0 km/h (1 Bft) O-NO #63:21 h #28,586 mm 388 W/m 8,6 C 14,9 C 7,5 km/h (2 Bft)
Roquefort les pins